Time;durP1;ratioP1;P1;durP2;ratioP2;P2;SDS_P1;SDS_P2;PMS_P1;PMS_P2;Temp;Humidity;BMP_temperature;BMP_pressure;BME280_temperature;BME280_humidity;BME280_pressure;Samples;Min_cycle;Max_cycle;Signal;HPM_P1;HPM_P2
2021/05/06 00:10:23;;;;;;;0.70;0.60;;;3.60;99.90;;;3.61;100.00;-20780.28;4992977;28;20745;-70
2021/05/06 00:34:08;;;;;;;0.70;0.60;;;2.80;99.90;;;2.92;100.00;-20761.31;4977767;28;20261;-72
2021/05/06 00:36:36;;;;;;;0.80;0.80;;;2.90;99.90;;;2.88;100.00;-20760.50;4994854;28;20192;-72
2021/05/06 00:39:10;;;;;;;0.80;0.70;;;2.80;99.90;;;2.80;100.00;-20758.25;4994678;28;20235;-71
2021/05/06 00:41:52;;;;;;;0.80;0.70;;;2.70;99.90;;;2.76;100.00;-20757.00;4996098;28;20184;-70
2021/05/06 00:56:13;;;;;;;0.75;0.70;;;2.50;99.90;;;2.62;100.00;-20753.22;4993074;28;20214;-70
2021/05/06 01:06:17;;;;;;;0.70;0.60;;;3.40;99.90;;;3.72;100.00;-20783.38;4993879;28;20238;-71
2021/05/06 01:08:57;;;;;;;0.80;0.70;;;3.50;99.90;;;3.88;100.00;-20787.81;4996356;28;20242;-70
2021/05/06 01:11:33;;;;;;;0.70;0.63;;;3.70;99.90;;;3.94;100.00;-20789.34;4995191;28;20189;-71
2021/05/06 01:14:04;;;;;;;0.80;0.70;;;3.80;99.90;;;4.04;100.00;-20792.16;4995811;28;20269;-72
2021/05/06 01:17:15;;;;;;;0.73;0.70;;;3.80;99.90;;;4.13;100.00;-20794.50;4977540;28;20585;-70
2021/05/06 01:20:02;;;;;;;0.70;0.60;;;3.90;99.90;;;4.19;100.00;-20796.19;4984446;28;20682;-71
2021/05/06 01:22:49;;;;;;;0.80;0.70;;;4.00;99.90;;;4.20;100.00;-20796.47;4982822;28;20230;-71
2021/05/06 01:25:17;;;;;;;0.80;0.70;;;4.00;99.90;;;4.21;100.00;-20796.75;4994994;28;20536;-71
2021/05/06 01:32:58;;;;;;;0.70;0.60;;;4.10;99.90;;;4.46;100.00;-20803.56;4999808;28;20217;-70
2021/05/06 01:35:40;;;;;;;0.70;0.60;;;4.20;99.90;;;4.51;100.00;-20804.81;4979560;28;20597;-70
2021/05/06 01:59:45;;;;;;;0.70;0.70;;;4.50;99.90;;;4.69;100.00;-20809.84;4994177;28;20266;-71
2021/05/06 02:02:12;;;;;;;0.70;0.63;;;4.50;99.90;;;4.71;100.00;-20810.25;4995750;28;20573;-70
2021/05/06 02:04:40;;;;;;;0.70;0.60;;;4.50;99.90;;;4.68;100.00;-20809.44;4996988;28;20202;-71
2021/05/06 02:07:09;;;;;;;0.77;0.70;;;4.50;99.90;;;4.70;100.00;-20810.13;4978563;28;20200;-71
2021/05/06 02:09:48;;;;;;;0.70;0.60;;;4.50;99.90;;;4.65;100.00;-20808.72;4977198;28;20204;-71
2021/05/06 02:12:19;;;;;;;0.70;0.60;;;4.50;99.90;;;4.77;100.00;-20812.06;4992392;28;20196;-71
2021/05/06 02:15:06;;;;;;;0.70;0.63;;;4.50;99.90;;;4.79;100.00;-20812.63;4994428;28;20202;-70
2021/05/06 02:17:35;;;;;;;0.73;0.70;;;4.60;99.90;;;4.67;100.00;-20809.13;4994985;28;20210;-70
2021/05/06 02:20:04;;;;;;;0.75;0.70;;;4.50;99.90;;;4.62;100.00;-20807.88;4993819;28;20718;-70
2021/05/06 02:22:32;;;;;;;0.70;0.70;;;4.40;99.90;;;4.72;100.00;-20810.53;4977754;28;20191;-69
2021/05/06 02:25:00;;;;;;;0.80;0.70;;;4.50;99.90;;;4.70;100.00;-20810.13;4994364;28;20188;-70
2021/05/06 02:27:27;;;;;;;0.70;0.60;;;4.50;99.90;;;4.77;100.00;-20812.06;4976783;28;20208;-70
2021/05/06 02:29:54;;;;;;;0.70;0.60;;;4.50;99.90;;;4.79;100.00;-20812.63;5003186;28;20191;-70
2021/05/06 02:32:21;;;;;;;0.70;0.60;;;4.60;99.90;;;4.77;100.00;-20812.06;4969500;28;20225;-70
2021/05/06 02:34:48;;;;;;;0.80;0.70;;;4.50;99.90;;;4.81;100.00;-20813.19;4994147;28;20690;-70
2021/05/06 02:37:16;;;;;;;0.70;0.60;;;4.60;99.90;;;4.81;100.00;-20813.19;4994457;28;20509;-69
2021/05/06 02:39:45;;;;;;;0.70;0.60;;;4.60;99.90;;;4.87;100.00;-20814.56;4994606;28;20223;-70
2021/05/06 02:42:14;;;;;;;0.80;0.70;;;4.60;99.90;;;4.94;100.00;-20816.53;4994825;28;20278;-70
2021/05/06 02:44:41;;;;;;;0.70;0.70;;;4.70;99.90;;;4.89;100.00;-20815.28;5010817;28;20628;-70
2021/05/06 02:47:08;;;;;;;0.70;0.60;;;4.60;99.90;;;4.93;100.00;-20816.25;4994197;28;20202;-69
2021/05/06 02:49:36;;;;;;;0.70;0.60;;;4.70;99.90;;;4.97;100.00;-20817.34;5002788;28;20226;-69
2021/05/06 02:52:11;;;;;;;0.70;0.60;;;4.70;99.90;;;4.94;100.00;-20816.66;4999075;28;20266;-70
2021/05/06 02:54:42;;;;;;;0.80;0.70;;;4.70;99.90;;;4.92;100.00;-20815.97;4994647;28;20210;-69
2021/05/06 02:57:24;;;;;;;0.70;0.60;;;4.70;99.90;;;4.96;100.00;-20817.09;4977186;28;20180;-69
2021/05/06 03:02:49;;;;;;;0.80;0.70;;;4.80;99.90;;;5.20;100.00;-20823.75;4994005;28;20188;-71
2021/05/06 03:05:19;;;;;;;0.70;0.60;;;4.80;99.90;;;5.07;100.00;-20820.13;4977327;28;20200;-69
2021/05/06 03:07:57;;;;;;;0.70;0.60;;;4.80;99.90;;;5.02;100.00;-20818.88;4993179;28;20577;-70
2021/05/06 03:23:49;;;;;;;0.70;0.70;;;4.70;99.90;;;4.89;100.00;-20815.13;4992989;28;20213;-68
2021/05/06 03:26:17;;;;;;;0.70;0.70;;;4.70;99.90;;;4.87;100.00;-20814.56;4992315;28;20202;-71
2021/05/06 03:28:55;;;;;;;0.70;0.70;;;4.60;99.90;;;4.94;100.00;-20816.53;5008576;28;20277;-69
2021/05/06 03:31:44;;;;;;;0.70;0.60;;;4.70;99.90;;;4.89;100.00;-20815.13;4989383;28;20210;-69
2021/05/06 03:43:01;;;;;;;0.70;0.60;;;4.60;99.90;;;5.03;100.00;-20819.03;5010778;28;20191;-69
2021/05/06 04:18:33;;;;;;;0.70;0.60;;;5.10;99.90;;;5.43;100.00;-20830.03;4977321;28;20247;-70
2021/05/06 04:37:03;;;;;;;0.70;0.60;;;5.20;99.90;;;5.61;100.00;-20834.91;4997143;28;20172;-69
2021/05/06 04:39:34;;;;;;;0.70;0.60;;;5.30;99.90;;;5.58;100.00;-20834.19;4998322;28;20222;-70
2021/05/06 04:50:27;;;;;;;0.70;0.65;;;5.00;99.90;;;5.26;100.00;-20825.44;4996995;28;20356;-70
2021/05/06 05:25:06;;;;;;;0.70;0.60;;;6.00;99.90;;;6.82;100.00;-20867.84;5003096;28;20199;-70
2021/05/06 05:27:33;;;;;;;0.70;0.60;;;6.10;99.90;;;6.85;100.00;-20868.53;4998154;28;20722;-70
2021/05/06 05:30:00;;;;;;;0.70;0.60;;;6.20;99.90;;;7.10;100.00;-20875.50;5014944;28;20243;-72
2021/05/06 05:32:27;;;;;;;0.70;0.60;;;6.20;99.90;;;7.19;100.00;-20878.00;4978728;28;20203;-72
2021/05/06 05:35:07;;;;;;;0.70;0.60;;;6.30;99.90;;;7.32;100.00;-20881.31;4995761;28;20195;-71
2021/05/06 05:37:39;;;;;;;0.70;0.60;;;6.40;99.90;;;7.13;100.00;-20876.19;4978453;28;20808;-71
2021/05/06 05:40:22;;;;;;;0.70;0.60;;;6.40;99.90;;;7.02;100.00;-20873.28;4995032;28;20607;-71
2021/05/06 05:56:46;;;;;;;0.70;0.50;;;6.70;99.90;;;7.45;100.00;-20884.94;5012356;28;20180;-69
2021/05/06 05:59:12;;;;;;;0.70;0.60;;;6.70;99.90;;;7.72;100.00;-20892.44;4974702;28;20452;-72
2021/05/06 06:01:40;;;;;;;0.70;0.60;;;6.80;99.90;;;7.73;100.00;-20892.72;4996120;28;20435;-71
2021/05/06 06:04:07;;;;;;;0.70;0.50;;;6.80;99.90;;;7.81;100.00;-20894.78;4978153;28;20458;-73
2021/05/06 06:06:34;;;;;;;0.70;0.60;;;6.80;99.90;;;7.57;100.00;-20888.28;4994403;28;20519;-71
2021/05/06 06:09:01;;;;;;;0.70;0.60;;;6.80;99.90;;;7.70;100.00;-20891.88;4984064;28;21009;-72
2021/05/06 06:11:31;;;;;;;0.70;0.60;;;6.80;99.90;;;7.72;100.00;-20892.44;5015276;28;20461;-72
2021/05/06 06:14:04;;;;;;;0.70;0.60;;;6.90;99.90;;;7.69;100.00;-20891.59;5014572;28;20413;-72
2021/05/06 06:16:32;;;;;;;0.70;0.60;;;6.90;99.90;;;7.81;100.00;-20894.66;5014855;28;20420;-70
2021/05/06 06:19:00;;;;;;;0.70;0.50;;;6.90;99.90;;;7.57;100.00;-20888.28;4995294;28;20435;-70
2021/05/06 06:24:07;;;;;;;0.70;0.60;;;7.20;99.90;;;8.13;100.00;-20903.53;4994913;28;20463;-70
2021/05/06 06:26:35;;;;;;;0.70;0.60;;;7.30;99.90;;;8.10;100.00;-20902.56;4994723;28;20471;-70
2021/05/06 06:29:14;;;;;;;0.80;0.73;;;7.40;99.90;;;8.06;100.00;-20901.44;4995058;28;20438;-70
2021/05/06 06:31:45;;;;;;;0.70;0.50;;;7.40;99.90;;;8.10;100.00;-20902.69;4977574;28;20766;-71
2021/05/06 06:34:12;;;;;;;0.70;0.60;;;7.40;99.90;;;7.99;100.00;-20899.66;4993471;28;20430;-73
2021/05/06 06:36:44;;;;;;;0.70;0.50;;;7.40;99.90;;;7.99;100.00;-20899.66;4993459;28;20438;-71
2021/05/06 06:39:14;;;;;;;0.70;0.60;;;7.50;99.90;;;8.42;100.00;-20911.44;5001202;28;20474;-70
2021/05/06 06:41:42;;;;;;;0.70;0.60;;;7.60;99.90;;;8.60;100.00;-20916.16;4996907;28;20436;-69
2021/05/06 06:44:12;;;;;;;0.70;0.50;;;7.80;99.90;;;8.75;100.00;-20920.19;5005501;28;20427;-70
2021/05/06 06:46:39;;;;;;;0.70;0.60;;;7.70;99.90;;;8.86;100.00;-20923.38;4977430;28;20462;-71
2021/05/06 06:49:07;;;;;;;0.70;0.50;;;7.80;99.90;;;8.55;100.00;-20914.91;4994298;28;20572;-71
2021/05/06 06:51:34;;;;;;;0.70;0.60;;;7.90;99.90;;;8.93;100.00;-20925.31;4977909;28;20451;-70
2021/05/06 06:54:01;;;;;;;0.70;0.60;;;8.10;99.90;;;8.92;100.00;-20925.03;4980606;28;20829;-71
2021/05/06 06:56:28;;;;;;;0.70;0.60;;;8.10;99.90;;;9.15;100.00;-20931.28;4973831;28;20454;-71
2021/05/06 06:58:56;;;;;;;0.70;0.60;;;8.10;99.90;;;9.55;100.00;-20942.06;4975891;28;20811;-70
2021/05/06 07:01:27;;;;;;;0.70;0.50;;;8.30;99.90;;;9.35;100.00;-20936.69;4978069;28;20911;-71
2021/05/06 07:03:54;;;;;;;0.70;0.60;;;8.50;99.90;;;9.85;100.00;-20950.25;4965625;28;20930;-72
2021/05/06 07:06:21;;;;;;;0.70;0.60;;;8.60;99.90;;;9.85;100.00;-20950.09;4993985;28;20445;-72
2021/05/06 07:08:49;;;;;;;0.70;0.60;;;8.70;99.90;;;9.51;100.00;-20940.97;4976819;28;20958;-73
2021/05/06 07:11:17;;;;;;;0.70;0.60;;;8.50;99.90;;;9.82;100.00;-20949.28;4994217;28;20415;-72
2021/05/06 07:13:44;;;;;;;0.70;0.60;;;8.60;99.90;;;9.58;100.00;-20942.91;4976929;28;20523;-72
2021/05/06 07:16:13;;;;;;;0.70;0.60;;;8.50;99.90;;;9.79;100.00;-20948.44;4991959;28;20458;-72
2021/05/06 07:18:41;;;;;;;0.70;0.60;;;8.60;99.90;;;10.20;100.00;-20959.50;4999082;28;20941;-72
2021/05/06 07:21:09;;;;;;;0.70;0.60;;;9.00;99.90;;;10.27;100.00;-20961.47;5010876;28;20486;-71
2021/05/06 07:23:36;;;;;;;0.70;0.50;;;9.50;99.90;;;10.81;100.00;-20976.25;4995962;28;20446;-71
2021/05/06 07:26:07;;;;;;;0.70;0.60;;;9.40;99.90;;;11.44;100.00;-20993.25;5013707;28;20416;-72
2021/05/06 07:28:39;;;;;;;0.70;0.60;;;9.40;99.90;;;11.66;100.00;-20999.06;5013630;28;20858;-71
2021/05/06 07:31:13;;;;;;;0.70;0.60;;;9.50;99.90;;;11.73;100.00;-21001.00;4996305;28;20417;-71
2021/05/06 07:33:47;;;;;;;0.70;0.60;;;9.40;99.90;;;10.94;100.00;-20979.59;4980949;28;20458;-71
2021/05/06 07:36:20;;;;;;;0.70;0.60;;;9.40;99.90;;;11.27;100.00;-20988.56;5008737;28;20792;-74
2021/05/06 07:38:50;;;;;;;0.70;0.57;;;9.00;99.90;;;10.49;100.00;-20967.53;4994963;28;20814;-72
2021/05/06 07:41:21;;;;;;;0.70;0.60;;;9.00;99.90;;;11.34;100.00;-20990.63;5013334;28;20429;-71
2021/05/06 07:43:53;;;;;;;0.70;0.60;;;9.20;99.90;;;11.18;100.00;-20986.06;5006480;28;20457;-72
2021/05/06 07:46:22;;;;;;;0.70;0.60;;;9.70;99.90;;;12.29;100.00;-21016.19;4993739;28;20411;-71
2021/05/06 07:48:55;;;;;;;0.77;0.70;;;10.00;99.90;;;11.73;100.00;-21001.00;4975061;28;20450;-72
2021/05/06 07:51:27;;;;;;;0.70;0.60;;;10.00;99.90;;;12.13;100.00;-21011.78;4976750;28;20445;-73
2021/05/06 07:54:05;;;;;;;0.70;0.60;;;9.70;99.90;;;12.40;100.00;-21019.22;4990678;28;20465;-73
2021/05/06 07:56:38;;;;;;;1.13;1.03;;;9.60;99.90;;;12.19;100.00;-21013.44;4994255;28;20423;-73
2021/05/06 07:59:05;;;;;;;0.80;0.70;;;9.80;99.90;;;12.25;100.00;-21015.09;4991047;28;20460;-70
2021/05/06 08:01:33;;;;;;;0.80;0.77;;;9.90;99.90;;;12.57;100.00;-21023.94;5013190;28;20875;-72
2021/05/06 08:04:02;;;;;;;0.70;0.70;;;9.90;99.90;;;11.81;100.00;-21003.34;4989214;28;20445;-71
2021/05/06 08:06:30;;;;;;;0.80;0.70;;;10.30;99.90;;;12.29;100.00;-21016.34;4976127;28;20545;-71
2021/05/06 08:08:57;;;;;;;0.70;0.60;;;10.30;99.90;;;12.15;100.00;-21012.31;4992503;28;20504;-71
2021/05/06 08:11:25;;;;;;;0.70;0.60;;;10.30;99.90;;;11.61;100.00;-20997.97;4993597;28;20463;-71
2021/05/06 08:13:52;;;;;;;0.70;0.60;;;10.00;99.90;;;11.65;100.00;-20998.78;4992166;28;20446;-70
2021/05/06 08:16:19;;;;;;;0.80;0.70;;;10.70;99.90;;;13.46;100.00;-21047.94;4993771;28;20416;-71
2021/05/06 08:18:46;;;;;;;0.70;0.60;;;11.10;99.90;;;14.03;100.00;-21063.22;4991871;28;20431;-72
2021/05/06 08:21:15;;;;;;;0.73;0.70;;;10.40;97.50;;;13.11;100.00;-21038.28;4988571;28;21016;-72
2021/05/06 08:23:43;;;;;;;0.70;0.60;;;10.20;98.60;;;13.22;100.00;-21041.31;4973119;28;20470;-72
2021/05/06 08:26:10;;;;;;;0.80;0.70;;;10.90;96.90;;;13.89;100.00;-21059.38;4988942;28;20847;-72
2021/05/06 08:28:48;;;;;;;0.80;0.80;;;11.40;95.50;;;15.60;100.00;-21105.47;4956357;28;20427;-72
2021/05/06 08:31:16;;;;;;;0.70;0.60;;;12.00;93.60;;;16.58;100.00;-21131.84;4988170;28;20462;-72
2021/05/06 08:33:43;;;;;;;0.70;0.70;;;12.80;91.80;;;16.09;100.00;-21118.66;4997610;28;20450;-73
2021/05/06 08:36:11;;;;;;;0.80;0.52;;;13.40;90.00;;;18.89;100.00;-21193.94;4994898;28;20530;-72
2021/05/06 08:38:40;;;;;;;0.70;0.60;;;13.40;83.90;;;16.93;100.00;-21141.31;4992220;28;20585;-72
2021/05/06 08:41:07;;;;;;;0.70;0.60;;;14.10;83.00;;;18.88;100.00;-21193.53;4976089;28;20946;-72
2021/05/06 08:43:38;;;;;;;0.70;0.60;;;14.00;78.70;;;18.42;100.00;-21181.34;4991328;28;21002;-72
2021/05/06 08:46:06;;;;;;;0.70;0.60;;;14.10;75.20;;;18.82;100.00;-21192.03;4976995;28;20434;-73
2021/05/06 08:48:53;;;;;;;0.70;0.60;;;13.50;72.20;;;16.66;100.00;-21134.19;4991844;28;20422;-72
2021/05/06 08:51:22;;;;;;;0.70;0.50;;;14.00;74.00;;;19.76;100.00;-21217.19;4977912;28;20454;-74
2021/05/06 08:53:50;;;;;;;0.70;0.60;;;14.10;67.70;;;19.90;100.00;-21220.88;4999758;28;20548;-73
2021/05/06 08:56:17;;;;;;;0.70;0.60;;;14.10;64.20;;;18.48;100.00;-21182.84;4982163;28;20545;-72
2021/05/06 08:58:45;;;;;;;0.80;0.60;;;14.30;64.30;;;20.13;100.00;-21227.03;4996651;28;20433;-73
2021/05/06 09:01:14;;;;;;;0.70;0.60;;;14.20;59.50;;;19.26;100.00;-21203.94;4992064;28;20928;-73
2021/05/06 09:03:42;;;;;;;0.70;0.60;;;14.70;58.00;;;20.47;100.00;-21236.31;4976112;28;20990;-73
2021/05/06 09:06:16;;;;;;;0.80;0.60;;;14.30;51.90;;;19.08;100.00;-21198.88;4976223;28;20444;-72
2021/05/06 09:08:46;;;;;;;0.70;0.60;;;14.30;57.30;;;19.18;100.00;-21201.59;4990839;28;20568;-73
2021/05/06 09:11:14;;;;;;;0.70;0.60;;;14.10;50.10;;;20.43;100.00;-21235.22;4996712;28;20427;-73
2021/05/06 09:13:43;;;;;;;0.70;0.60;;;14.00;51.20;;;18.43;100.00;-21181.47;4999711;28;20570;-74
2021/05/06 09:16:10;;;;;;;0.70;0.60;;;13.60;56.10;;;18.61;100.00;-21186.28;4976717;28;20849;-74
2021/05/06 09:18:42;;;;;;;0.70;0.60;;;14.40;53.30;;;18.01;100.00;-21170.25;4976999;28;20408;-72
2021/05/06 09:21:27;;;;;;;0.80;0.70;;;15.10;51.60;;;17.21;100.00;-21148.72;4976633;28;20460;-72
2021/05/06 09:24:10;;;;;;;0.70;0.60;;;14.80;52.30;;;20.24;100.00;-21230.16;4978628;28;20447;-73
2021/05/06 09:26:41;;;;;;;0.70;0.60;;;14.00;45.30;;;19.21;100.00;-21202.56;4995092;28;20435;-74
2021/05/06 09:29:12;;;;;;;0.70;0.60;;;14.50;46.90;;;17.66;100.00;-21160.78;4996679;28;20415;-73
2021/05/06 09:31:41;;;;;;;0.70;0.60;;;14.50;44.30;;;18.49;100.00;-21183.25;4995098;28;20431;-73
2021/05/06 09:34:12;;;;;;;0.70;0.50;;;14.80;45.00;;;19.91;97.18;-21221.16;4996346;28;20389;-72
2021/05/06 09:36:44;;;;;;;0.70;0.50;;;14.90;40.50;;;20.34;100.00;-21232.63;4995204;28;20430;-73
2021/05/06 09:39:13;;;;;;;0.70;0.60;;;16.10;40.20;;;21.90;87.75;-21274.38;4978596;28;20580;-73
2021/05/06 09:41:41;;;;;;;0.70;0.60;;;15.10;37.40;;;20.69;89.25;-21242.19;4979413;28;20485;-73
2021/05/06 09:44:11;;;;;;;0.73;0.60;;;14.80;38.50;;;21.37;82.13;-21260.22;4994758;28;20446;-74
2021/05/06 09:46:56;;;;;;;0.70;0.60;;;14.30;32.70;;;20.55;80.35;-21238.22;4995326;28;20419;-73
2021/05/06 09:49:25;;;;;;;0.70;0.53;;;15.00;28.50;;;20.47;86.23;-21236.19;4995999;28;20446;-73
2021/05/06 09:51:55;;;;;;;0.70;0.60;;;16.00;29.60;;;18.79;84.24;-21191.34;4994190;28;20430;-71
2021/05/06 09:54:24;;;;;;;0.70;0.60;;;16.60;27.00;;;19.24;87.07;-21203.38;4997661;28;20442;-73
2021/05/06 09:56:59;;;;;;;0.70;0.50;;;15.70;27.10;;;19.16;89.79;-21201.19;4998397;28;20418;-72
2021/05/06 09:59:28;;;;;;;0.70;0.60;;;15.40;30.60;;;19.15;88.19;-21200.91;5015175;28;20748;-72
2021/05/06 10:02:08;;;;;;;0.70;0.50;;;16.10;25.10;;;19.64;90.48;-21214.06;4995035;28;20509;-71
2021/05/06 10:04:37;;;;;;;0.70;0.60;;;16.30;29.20;;;17.76;84.95;-21163.53;4979139;28;20930;-72
2021/05/06 10:07:11;;;;;;;0.73;0.60;;;15.80;22.60;;;18.22;89.44;-21176.00;4995309;28;20525;-73
2021/05/06 10:09:52;;;;;;;0.70;0.60;;;14.70;24.50;;;19.01;89.06;-21197.09;4995276;28;20802;-72
2021/05/06 10:12:23;;;;;;;0.70;0.60;;;15.60;26.50;;;18.94;81.60;-21195.16;4994101;28;20435;-72
2021/05/06 10:14:50;;;;;;;0.70;0.60;;;15.80;19.70;;;20.06;76.01;-21225.25;4995114;28;20422;-73
2021/05/06 10:17:19;;;;;;;0.70;0.60;;;15.60;16.50;;;20.57;78.07;-21238.91;4994329;28;20450;-74
2021/05/06 10:19:48;;;;;;;0.70;0.60;;;15.60;17.60;;;21.11;73.86;-21253.38;4979048;28;20489;-73
2021/05/06 10:22:20;;;;;;;0.70;0.60;;;14.40;17.70;;;19.77;81.12;-21217.59;4995716;28;20818;-74
2021/05/06 10:24:48;;;;;;;0.70;0.50;;;15.50;18.90;;;19.61;76.08;-21213.09;4993627;28;20397;-72
2021/05/06 10:27:18;;;;;;;0.70;0.60;;;15.90;17.00;;;20.85;75.13;-21246.28;4995339;28;20962;-73
2021/05/06 10:29:48;;;;;;;0.70;0.60;;;15.80;15.60;;;21.63;73.33;-21267.28;5002328;28;20520;-73
2021/05/06 10:32:16;;;;;;;0.70;0.60;;;15.70;14.20;;;21.60;74.12;-21266.34;5011107;28;20426;-73
2021/05/06 10:34:54;;;;;;;0.70;0.60;;;15.90;15.20;;;21.32;74.32;-21258.84;4999567;28;20446;-73
2021/05/06 10:37:26;;;;;;;0.70;0.53;;;15.30;15.50;;;21.13;74.94;-21253.78;5014597;28;20415;-73
2021/05/06 10:39:54;;;;;;;0.70;0.60;;;16.20;15.10;;;21.86;71.65;-21273.44;4996581;28;20532;-73
2021/05/06 10:42:39;;;;;;;0.70;0.53;;;15.60;14.10;;;20.32;74.84;-21232.09;4996657;28;20441;-73
2021/05/06 10:45:33;;;;;;;0.70;0.60;;;16.00;14.90;;;21.61;69.93;-21266.75;4993540;28;20534;-74
2021/05/06 10:48:02;;;;;;;0.70;0.60;;;15.50;11.00;;;20.88;72.08;-21247.25;4982564;28;20462;-74
2021/05/06 10:50:39;;;;;;;0.70;0.60;;;15.50;12.50;;;19.93;72.51;-21221.69;4978295;28;20862;-75
2021/05/06 10:53:09;;;;;;;0.70;0.60;;;15.30;12.80;;;19.36;75.43;-21206.38;4993443;28;20425;-74
2021/05/06 10:55:49;;;;;;;0.70;0.60;;;15.20;13.10;;;19.05;74.66;-21198.19;4995262;28;20945;-74
2021/05/06 10:58:39;;;;;;;0.80;0.60;;;15.00;12.40;;;19.26;73.64;-21203.78;4978366;28;20393;-74
2021/05/06 11:01:18;;;;;;;0.80;0.70;;;14.50;12.30;;;19.20;74.19;-21202.28;4981809;28;20516;-74
2021/05/06 11:04:03;;;;;;;0.80;0.70;;;15.00;12.40;;;19.86;74.08;-21219.78;4996987;28;20422;-74
2021/05/06 11:06:40;;;;;;;0.80;0.60;;;15.00;12.80;;;20.62;72.75;-21240.28;5015130;28;20385;-73
2021/05/06 11:09:47;;;;;;;0.80;0.70;;;15.40;12.10;;;20.18;72.01;-21228.41;4991586;28;20452;-74
2021/05/06 11:12:34;;;;;;;0.70;0.60;;;15.00;11.70;;;19.68;71.42;-21215.16;5014621;28;20425;-74
2021/05/06 11:15:31;;;;;;;0.70;0.60;;;14.80;10.10;;;17.64;78.29;-21160.38;4980671;28;21013;-74
2021/05/06 11:18:05;;;;;;;0.80;0.70;;;14.40;14.20;;;15.60;86.97;-21105.47;4994281;28;20529;-73
2021/05/06 11:20:50;;;;;;;0.90;0.90;;;14.00;14.70;;;15.42;93.97;-21100.78;4993041;28;20433;-72
2021/05/06 11:23:36;;;;;;;1.87;1.77;;;13.90;17.60;;;15.44;95.95;-21101.34;4994447;28;20443;-74
2021/05/06 11:26:12;;;;;;;0.73;0.70;;;13.40;16.80;;;15.19;89.24;-21094.47;4994461;28;20427;-73
2021/05/06 11:28:50;;;;;;;1.33;1.23;;;13.10;15.10;;;15.34;88.50;-21098.59;4994515;28;20542;-73
2021/05/06 11:31:49;;;;;;;0.70;0.60;;;13.00;15.10;;;14.92;93.77;-21087.31;5013565;28;20769;-74
2021/05/06 11:34:39;;;;;;;0.80;0.70;;;13.00;15.10;;;14.63;89.00;-21079.34;4995917;28;20437;-72
2021/05/06 11:37:17;;;;;;;0.80;0.70;;;13.50;14.00;;;14.38;96.78;-21072.72;4996020;28;20431;-73
2021/05/06 11:40:04;;;;;;;0.80;0.70;;;13.40;15.20;;;15.37;88.75;-21099.41;5013144;28;20465;-72
2021/05/06 11:42:40;;;;;;;0.70;0.60;;;13.90;13.80;;;14.88;86.41;-21086.22;4996030;28;20940;-71
2021/05/06 11:45:23;;;;;;;0.70;0.60;;;13.80;12.90;;;15.16;85.99;-21093.63;4988225;28;20484;-73
2021/05/06 11:47:53;;;;;;;0.80;0.77;;;13.90;12.10;;;15.39;84.82;-21099.97;4973541;28;20474;-73
2021/05/06 11:50:29;;;;;;;0.70;0.60;;;14.00;11.70;;;16.17;84.40;-21120.84;4981111;28;20430;-74
2021/05/06 11:52:59;;;;;;;0.70;0.70;;;13.80;12.40;;;15.02;84.80;-21089.94;4993390;28;20464;-74
2021/05/06 11:55:29;;;;;;;0.70;0.60;;;13.80;11.90;;;14.90;89.60;-21086.75;4975985;28;20442;-72
2021/05/06 11:57:57;;;;;;;0.73;0.60;;;13.90;13.70;;;14.95;91.40;-21088.00;5011788;28;20987;-73
2021/05/06 12:00:29;;;;;;;0.70;0.60;;;13.90;13.80;;;16.28;86.42;-21123.75;5015008;28;20430;-72
2021/05/06 12:02:59;;;;;;;0.70;0.60;;;13.70;13.70;;;15.19;85.77;-21094.47;5007470;28;20976;-73
2021/05/06 12:05:59;;;;;;;0.70;0.60;;;13.80;13.20;;;15.75;95.53;-21109.59;4994073;28;20444;-73
2021/05/06 12:08:30;;;;;;;0.70;0.60;;;13.90;13.80;;;15.87;86.37;-21112.88;4992776;28;20483;-75
2021/05/06 12:11:01;;;;;;;0.80;0.60;;;14.20;13.10;;;15.56;86.56;-21104.38;4993053;28;20480;-73
2021/05/06 12:13:33;;;;;;;0.70;0.70;;;14.20;12.50;;;15.97;90.71;-21115.50;4979973;28;20442;-74
2021/05/06 12:16:17;;;;;;;0.70;0.60;;;14.00;15.70;;;16.22;84.26;-21122.22;4973476;28;20864;-74
2021/05/06 12:19:00;;;;;;;0.80;0.60;;;14.40;11.60;;;17.58;83.46;-21158.72;4965942;28;20521;-75
2021/05/06 12:21:43;;;;;;;0.70;0.60;;;14.40;13.30;;;17.68;84.93;-21161.34;4989076;28;20461;-74
2021/05/06 12:24:24;;;;;;;0.70;0.60;;;14.30;14.10;;;16.90;86.68;-21140.63;4981315;28;20839;-75
2021/05/06 12:26:53;;;;;;;0.73;0.70;;;14.90;14.50;;;17.53;82.00;-21157.50;5024860;28;20869;-76
2021/05/06 12:29:23;;;;;;;0.70;0.60;;;14.30;12.20;;;17.78;81.51;-21164.22;4998499;28;20458;-76
2021/05/06 12:31:52;;;;;;;0.70;0.60;;;14.00;14.50;;;16.90;82.84;-21140.63;5007106;28;20452;-75
2021/05/06 12:34:23;;;;;;;0.80;0.70;;;13.90;14.60;;;17.33;83.86;-21152.16;4996439;28;20417;-77
2021/05/06 12:36:56;;;;;;;0.70;0.60;;;14.00;13.90;;;16.85;81.54;-21139.25;4997456;28;20411;-76
2021/05/06 12:39:24;;;;;;;0.80;0.70;;;14.00;14.60;;;15.23;88.66;-21095.56;4981822;28;20517;-75
2021/05/06 12:41:56;;;;;;;0.70;0.60;;;14.00;14.40;;;16.14;87.45;-21120.03;5009382;28;20998;-76
2021/05/06 12:44:37;;;;;;;0.77;0.70;;;13.70;15.50;;;16.32;86.87;-21124.97;5008694;28;20437;-74
2021/05/06 12:47:21;;;;;;;0.80;0.70;;;13.40;16.30;;;15.97;91.53;-21115.50;4999552;28;20418;-73
2021/05/06 12:50:06;;;;;;;0.70;0.60;;;13.30;18.50;;;16.28;90.61;-21123.75;4999122;28;20419;-74
2021/05/06 12:52:37;;;;;;;1.13;1.03;;;13.60;18.30;;;15.99;89.12;-21115.91;4982727;28;20537;-73
2021/05/06 12:55:20;;;;;;;0.77;0.70;;;14.00;17.10;;;15.46;90.74;-21101.88;5016383;28;20421;-72
2021/05/06 12:58:06;;;;;;;0.80;0.70;;;14.30;16.00;;;15.96;90.77;-21115.09;4999722;28;20446;-74
2021/05/06 13:00:38;;;;;;;0.70;0.60;;;14.10;16.40;;;16.70;90.63;-21135.00;4987315;28;20443;-74
2021/05/06 13:03:09;;;;;;;0.70;0.67;;;14.40;17.40;;;17.37;85.08;-21153.09;4978911;28;20777;-74
2021/05/06 13:05:41;;;;;;;0.80;0.60;;;14.30;14.30;;;17.10;89.80;-21145.97;4997885;28;20529;-75
2021/05/06 13:08:10;;;;;;;0.80;0.67;;;14.40;16.40;;;16.14;87.50;-21120.03;4989057;28;20581;-73
2021/05/06 13:10:42;;;;;;;0.70;0.60;;;14.80;16.00;;;16.20;90.90;-21121.69;5000896;28;20520;-73
2021/05/06 13:13:12;;;;;;;0.70;0.60;;;14.70;15.50;;;16.96;89.41;-21142.00;5004078;28;20440;-73
2021/05/06 13:15:48;;;;;;;0.80;0.63;;;14.80;17.20;;;17.25;86.60;-21149.81;4981339;28;20536;-73
2021/05/06 13:18:19;;;;;;;0.70;0.60;;;14.90;15.80;;;16.66;85.39;-21134.19;5010041;28;20428;-73
2021/05/06 13:20:48;;;;;;;0.70;0.60;;;14.70;14.10;;;16.72;86.79;-21135.69;4999451;28;20451;-74
2021/05/06 13:23:25;;;;;;;0.70;0.60;;;14.50;15.50;;;15.62;89.27;-21106.16;4985613;28;20465;-73
2021/05/06 13:25:55;;;;;;;0.70;0.70;;;14.50;15.90;;;15.55;100.00;-21104.09;4999248;28;20441;-73
2021/05/06 13:28:42;;;;;;;0.70;0.60;;;14.30;18.50;;;16.36;88.81;-21126.06;4993531;28;20477;-73
2021/05/06 13:31:31;;;;;;;0.70;0.60;;;13.80;15.50;;;16.38;85.89;-21126.47;4987669;28;20442;-74
2021/05/06 13:34:18;;;;;;;0.70;0.60;;;13.50;15.00;;;16.07;85.65;-21118.25;4988523;28;20447;-75
2021/05/06 13:36:59;;;;;;;0.80;0.63;;;13.30;15.50;;;14.83;94.75;-21084.84;4984035;28;20449;-73
2021/05/06 13:39:28;;;;;;;0.70;0.60;;;13.20;18.40;;;15.20;91.82;-21094.75;4985018;28;20483;-73
2021/05/06 13:41:56;;;;;;;0.70;0.67;;;13.00;16.50;;;14.58;92.92;-21077.94;4985568;28;20956;-73
2021/05/06 13:44:25;;;;;;;0.73;0.67;;;12.90;17.60;;;13.70;98.75;-21054.25;4998722;28;20449;-73
2021/05/06 13:46:54;;;;;;;0.73;0.60;;;12.90;16.90;;;13.98;100.00;-21061.97;4980459;28;20882;-74
2021/05/06 13:49:24;;;;;;;0.70;0.60;;;12.80;18.80;;;14.31;100.00;-21070.78;5003078;28;20471;-75
2021/05/06 13:51:52;;;;;;;0.70;0.60;;;12.60;21.50;;;13.90;100.00;-21059.78;4997848;28;20441;-73
2021/05/06 13:54:21;;;;;;;0.80;0.70;;;12.50;22.60;;;13.80;100.00;-21057.03;4989139;28;20458;-73
2021/05/06 13:56:49;;;;;;;0.77;0.63;;;12.50;23.20;;;13.43;100.00;-21047.09;5012030;28;20461;-74
2021/05/06 13:59:16;;;;;;;0.70;0.70;;;12.50;25.20;;;13.91;100.00;-21059.91;5002036;28;20434;-74
2021/05/06 14:01:51;;;;;;;0.80;0.70;;;12.50;25.00;;;13.71;100.00;-21054.53;5009630;28;20453;-74
2021/05/06 14:04:19;;;;;;;0.70;0.60;;;12.50;29.90;;;13.97;100.00;-21061.69;5007588;28;20440;-74